sensor_id;sensor_type;location;lat;lon;timestamp;P1;durP1;ratioP1;P2;durP2;ratioP2
14121;SDS011;7139;48.114;11.442;2022-08-07T00:01:42;16.23;;;14.60;;
14121;SDS011;7139;48.114;11.442;2022-08-07T00:04:09;15.97;;;14.47;;
14121;SDS011;7139;48.114;11.442;2022-08-07T00:06:37;14.90;;;13.50;;
14121;SDS011;7139;48.114;11.442;2022-08-07T00:09:04;14.33;;;12.93;;
14121;SDS011;7139;48.114;11.442;2022-08-07T00:11:31;14.47;;;13.07;;
14121;SDS011;7139;48.114;11.442;2022-08-07T00:13:57;14.00;;;12.60;;
14121;SDS011;7139;48.114;11.442;2022-08-07T00:16:24;11.77;;;10.57;;
14121;SDS011;7139;48.114;11.442;2022-08-07T00:18:52;12.43;;;10.43;;
14121;SDS011;7139;48.114;11.442;2022-08-07T00:21:19;10.50;;;8.93;;
14121;SDS011;7139;48.114;11.442;2022-08-07T00:23:46;9.83;;;7.97;;
14121;SDS011;7139;48.114;11.442;2022-08-07T00:26:13;7.70;;;7.00;;
14121;SDS011;7139;48.114;11.442;2022-08-07T00:28:40;7.97;;;6.70;;
14121;SDS011;7139;48.114;11.442;2022-08-07T00:31:08;8.13;;;7.33;;
14121;SDS011;7139;48.114;11.442;2022-08-07T00:33:36;7.17;;;6.57;;
14121;SDS011;7139;48.114;11.442;2022-08-07T00:36:06;7.87;;;6.37;;
14121;SDS011;7139;48.114;11.442;2022-08-07T00:38:33;7.87;;;6.43;;
14121;SDS011;7139;48.114;11.442;2022-08-07T00:41:02;10.10;;;7.37;;
14121;SDS011;7139;48.114;11.442;2022-08-07T00:43:29;8.40;;;6.70;;
14121;SDS011;7139;48.114;11.442;2022-08-07T00:45:57;6.77;;;6.10;;
14121;SDS011;7139;48.114;11.442;2022-08-07T00:48:24;7.83;;;7.07;;
14121;SDS011;7139;48.114;11.442;2022-08-07T00:50:51;7.77;;;6.40;;
14121;SDS011;7139;48.114;11.442;2022-08-07T00:53:19;8.03;;;6.67;;
14121;SDS011;7139;48.114;11.442;2022-08-07T00:55:47;10.57;;;6.83;;
14121;SDS011;7139;48.114;11.442;2022-08-07T00:58:14;7.97;;;6.43;;
14121;SDS011;7139;48.114;11.442;2022-08-07T01:00:41;8.43;;;6.63;;
14121;SDS011;7139;48.114;11.442;2022-08-07T01:03:07;7.20;;;6.50;;
14121;SDS011;7139;48.114;11.442;2022-08-07T01:05:34;6.93;;;6.20;;
14121;SDS011;7139;48.114;11.442;2022-08-07T01:08:02;6.87;;;6.27;;
14121;SDS011;7139;48.114;11.442;2022-08-07T01:10:31;9.00;;;5.97;;
14121;SDS011;7139;48.114;11.442;2022-08-07T01:12:58;7.40;;;6.00;;
14121;SDS011;7139;48.114;11.442;2022-08-07T01:15:25;6.70;;;5.90;;
14121;SDS011;7139;48.114;11.442;2022-08-07T01:17:52;5.53;;;5.03;;
14121;SDS011;7139;48.114;11.442;2022-08-07T01:20:21;6.10;;;5.20;;
14121;SDS011;7139;48.114;11.442;2022-08-07T01:22:57;6.20;;;5.43;;
14121;SDS011;7139;48.114;11.442;2022-08-07T01:25:25;6.17;;;5.03;;
14121;SDS011;7139;48.114;11.442;2022-08-07T01:27:54;5.17;;;4.67;;
14121;SDS011;7139;48.114;11.442;2022-08-07T01:30:21;5.33;;;4.83;;
14121;SDS011;7139;48.114;11.442;2022-08-07T01:32:49;5.90;;;5.30;;
14121;SDS011;7139;48.114;11.442;2022-08-07T01:35:16;5.47;;;4.93;;
14121;SDS011;7139;48.114;11.442;2022-08-07T01:37:43;4.87;;;4.37;;
14121;SDS011;7139;48.114;11.442;2022-08-07T01:40:12;5.17;;;4.70;;
14121;SDS011;7139;48.114;11.442;2022-08-07T01:42:41;5.50;;;5.00;;
14121;SDS011;7139;48.114;11.442;2022-08-07T01:45:08;5.50;;;5.03;;
14121;SDS011;7139;48.114;11.442;2022-08-07T01:47:36;6.33;;;4.57;;
14121;SDS011;7139;48.114;11.442;2022-08-07T01:50:03;5.27;;;4.77;;
14121;SDS011;7139;48.114;11.442;2022-08-07T01:52:30;5.20;;;4.70;;
14121;SDS011;7139;48.114;11.442;2022-08-07T01:54:59;5.07;;;4.63;;
14121;SDS011;7139;48.114;11.442;2022-08-07T01:57:29;5.00;;;4.40;;
14121;SDS011;7139;48.114;11.442;2022-08-07T02:00:00;5.70;;;4.50;;
14121;SDS011;7139;48.114;11.442;2022-08-07T02:02:31;5.03;;;4.60;;
14121;SDS011;7139;48.114;11.442;2022-08-07T02:05:04;7.33;;;4.67;;
14121;SDS011;7139;48.114;11.442;2022-08-07T02:07:35;5.20;;;4.70;;
14121;SDS011;7139;48.114;11.442;2022-08-07T02:10:05;4.43;;;4.03;;
14121;SDS011;7139;48.114;11.442;2022-08-07T02:12:37;5.27;;;4.13;;
14121;SDS011;7139;48.114;11.442;2022-08-07T02:15:07;5.20;;;4.70;;
14121;SDS011;7139;48.114;11.442;2022-08-07T02:17:36;5.00;;;4.50;;
14121;SDS011;7139;48.114;11.442;2022-08-07T02:20:06;5.80;;;4.40;;
14121;SDS011;7139;48.114;11.442;2022-08-07T02:22:36;4.60;;;4.20;;
14121;SDS011;7139;48.114;11.442;2022-08-07T02:25:04;6.30;;;5.00;;
14121;SDS011;7139;48.114;11.442;2022-08-07T02:27:32;5.57;;;5.07;;
14121;SDS011;7139;48.114;11.442;2022-08-07T02:30:02;5.67;;;4.90;;
14121;SDS011;7139;48.114;11.442;2022-08-07T02:32:30;6.03;;;4.70;;
14121;SDS011;7139;48.114;11.442;2022-08-07T02:35:00;5.23;;;4.73;;
14121;SDS011;7139;48.114;11.442;2022-08-07T02:37:28;5.33;;;4.87;;
14121;SDS011;7139;48.114;11.442;2022-08-07T02:39:57;5.20;;;4.80;;
14121;SDS011;7139;48.114;11.442;2022-08-07T02:42:25;5.30;;;4.80;;
14121;SDS011;7139;48.114;11.442;2022-08-07T02:44:54;5.03;;;4.60;;
14121;SDS011;7139;48.114;11.442;2022-08-07T02:47:22;5.73;;;4.17;;
14121;SDS011;7139;48.114;11.442;2022-08-07T02:49:49;4.70;;;4.30;;
14121;SDS011;7139;48.114;11.442;2022-08-07T02:52:22;4.83;;;4.43;;
14121;SDS011;7139;48.114;11.442;2022-08-07T02:54:54;4.87;;;4.40;;
14121;SDS011;7139;48.114;11.442;2022-08-07T02:57:23;4.83;;;4.23;;
14121;SDS011;7139;48.114;11.442;2022-08-07T02:59:51;5.90;;;4.30;;
14121;SDS011;7139;48.114;11.442;2022-08-07T03:02:20;5.50;;;4.50;;
14121;SDS011;7139;48.114;11.442;2022-08-07T03:04:48;5.30;;;4.90;;
14121;SDS011;7139;48.114;11.442;2022-08-07T03:07:18;5.37;;;4.87;;
14121;SDS011;7139;48.114;11.442;2022-08-07T03:09:45;5.00;;;4.60;;
14121;SDS011;7139;48.114;11.442;2022-08-07T03:12:13;5.50;;;4.77;;
14121;SDS011;7139;48.114;11.442;2022-08-07T03:14:41;5.07;;;4.67;;
14121;SDS011;7139;48.114;11.442;2022-08-07T03:17:09;5.43;;;4.93;;
14121;SDS011;7139;48.114;11.442;2022-08-07T03:19:37;5.53;;;4.57;;
14121;SDS011;7139;48.114;11.442;2022-08-07T03:22:06;5.87;;;5.37;;
14121;SDS011;7139;48.114;11.442;2022-08-07T03:24:34;6.33;;;5.23;;
14121;SDS011;7139;48.114;11.442;2022-08-07T03:27:01;6.27;;;5.70;;
14121;SDS011;7139;48.114;11.442;2022-08-07T03:29:31;7.27;;;6.57;;
14121;SDS011;7139;48.114;11.442;2022-08-07T03:32:00;6.17;;;5.67;;
14121;SDS011;7139;48.114;11.442;2022-08-07T03:34:30;8.03;;;6.33;;
14121;SDS011;7139;48.114;11.442;2022-08-07T03:36:59;6.80;;;6.20;;
14121;SDS011;7139;48.114;11.442;2022-08-07T03:39:28;6.90;;;6.20;;
14121;SDS011;7139;48.114;11.442;2022-08-07T03:41:56;6.57;;;5.97;;
14121;SDS011;7139;48.114;11.442;2022-08-07T03:44:24;6.67;;;5.97;;
14121;SDS011;7139;48.114;11.442;2022-08-07T03:46:51;6.97;;;6.27;;
14121;SDS011;7139;48.114;11.442;2022-08-07T03:49:18;6.73;;;6.10;;
14121;SDS011;7139;48.114;11.442;2022-08-07T03:51:45;6.43;;;5.90;;
14121;SDS011;7139;48.114;11.442;2022-08-07T03:54:15;7.77;;;7.07;;
14121;SDS011;7139;48.114;11.442;2022-08-07T03:56:41;7.70;;;7.00;;
14121;SDS011;7139;48.114;11.442;2022-08-07T03:59:10;7.40;;;6.80;;
14121;SDS011;7139;48.114;11.442;2022-08-07T04:01:39;7.33;;;6.63;;
14121;SDS011;7139;48.114;11.442;2022-08-07T04:04:07;9.03;;;7.33;;
14121;SDS011;7139;48.114;11.442;2022-08-07T04:06:35;8.20;;;7.20;;
14121;SDS011;7139;48.114;11.442;2022-08-07T04:09:04;8.13;;;7.00;;
14121;SDS011;7139;48.114;11.442;2022-08-07T04:11:33;8.13;;;7.53;;
14121;SDS011;7139;48.114;11.442;2022-08-07T04:14:01;8.23;;;7.43;;
14121;SDS011;7139;48.114;11.442;2022-08-07T04:16:28;7.50;;;6.90;;
14121;SDS011;7139;48.114;11.442;2022-08-07T04:18:56;7.27;;;6.67;;
14121;SDS011;7139;48.114;11.442;2022-08-07T04:21:23;8.00;;;7.20;;
14121;SDS011;7139;48.114;11.442;2022-08-07T04:23:50;8.57;;;7.60;;
14121;SDS011;7139;48.114;11.442;2022-08-07T04:26:17;7.80;;;7.10;;
14121;SDS011;7139;48.114;11.442;2022-08-07T04:28:45;7.93;;;7.17;;
14121;SDS011;7139;48.114;11.442;2022-08-07T04:31:12;8.53;;;7.73;;
14121;SDS011;7139;48.114;11.442;2022-08-07T04:33:39;7.70;;;7.00;;
14121;SDS011;7139;48.114;11.442;2022-08-07T04:36:06;8.20;;;7.30;;
14121;SDS011;7139;48.114;11.442;2022-08-07T04:38:34;7.83;;;7.10;;
14121;SDS011;7139;48.114;11.442;2022-08-07T04:41:02;7.33;;;6.63;;
14121;SDS011;7139;48.114;11.442;2022-08-07T04:43:29;7.40;;;6.77;;
14121;SDS011;7139;48.114;11.442;2022-08-07T04:46:02;7.30;;;6.70;;
14121;SDS011;7139;48.114;11.442;2022-08-07T04:48:34;7.17;;;6.30;;
14121;SDS011;7139;48.114;11.442;2022-08-07T04:51:07;6.70;;;6.00;;
14121;SDS011;7139;48.114;11.442;2022-08-07T04:53:41;6.20;;;5.70;;
14121;SDS011;7139;48.114;11.442;2022-08-07T04:56:14;6.50;;;5.90;;
14121;SDS011;7139;48.114;11.442;2022-08-07T04:58:47;7.23;;;6.03;;
14121;SDS011;7139;48.114;11.442;2022-08-07T05:01:19;6.30;;;5.73;;
14121;SDS011;7139;48.114;11.442;2022-08-07T05:03:54;6.17;;;5.67;;
14121;SDS011;7139;48.114;11.442;2022-08-07T05:06:29;5.50;;;5.07;;
14121;SDS011;7139;48.114;11.442;2022-08-07T05:09:00;6.13;;;5.53;;
14121;SDS011;7139;48.114;11.442;2022-08-07T05:11:30;6.77;;;6.00;;
14121;SDS011;7139;48.114;11.442;2022-08-07T05:14:00;6.20;;;5.40;;
14121;SDS011;7139;48.114;11.442;2022-08-07T05:16:32;6.53;;;5.93;;
14121;SDS011;7139;48.114;11.442;2022-08-07T05:19:03;6.53;;;5.90;;
14121;SDS011;7139;48.114;11.442;2022-08-07T05:21:35;5.93;;;5.33;;
14121;SDS011;7139;48.114;11.442;2022-08-07T05:24:06;6.40;;;5.63;;
14121;SDS011;7139;48.114;11.442;2022-08-07T05:26:37;6.33;;;5.70;;
14121;SDS011;7139;48.114;11.442;2022-08-07T05:29:06;6.13;;;5.63;;
14121;SDS011;7139;48.114;11.442;2022-08-07T05:31:40;5.63;;;5.00;;
14121;SDS011;7139;48.114;11.442;2022-08-07T05:34:10;5.70;;;5.10;;
14121;SDS011;7139;48.114;11.442;2022-08-07T05:36:39;5.40;;;4.90;;
14121;SDS011;7139;48.114;11.442;2022-08-07T05:39:08;5.93;;;5.33;;
14121;SDS011;7139;48.114;11.442;2022-08-07T05:41:36;5.10;;;4.60;;
14121;SDS011;7139;48.114;11.442;2022-08-07T05:44:07;5.00;;;4.60;;
14121;SDS011;7139;48.114;11.442;2022-08-07T05:46:34;4.37;;;4.00;;
14121;SDS011;7139;48.114;11.442;2022-08-07T05:49:04;5.00;;;4.60;;
14121;SDS011;7139;48.114;11.442;2022-08-07T05:51:32;5.07;;;4.67;;
14121;SDS011;7139;48.114;11.442;2022-08-07T05:54:00;4.70;;;4.23;;
14121;SDS011;7139;48.114;11.442;2022-08-07T05:56:28;6.07;;;4.57;;
14121;SDS011;7139;48.114;11.442;2022-08-07T05:59:00;5.20;;;4.70;;
14121;SDS011;7139;48.114;11.442;2022-08-07T06:01:35;4.33;;;3.93;;
14121;SDS011;7139;48.114;11.442;2022-08-07T06:04:05;4.33;;;3.93;;
14121;SDS011;7139;48.114;11.442;2022-08-07T06:06:34;4.40;;;4.10;;
14121;SDS011;7139;48.114;11.442;2022-08-07T06:09:01;4.47;;;4.17;;
14121;SDS011;7139;48.114;11.442;2022-08-07T06:11:28;4.63;;;4.30;;
14121;SDS011;7139;48.114;11.442;2022-08-07T06:13:55;4.30;;;4.00;;
14121;SDS011;7139;48.114;11.442;2022-08-07T06:16:24;4.60;;;4.20;;
14121;SDS011;7139;48.114;11.442;2022-08-07T06:18:53;4.80;;;3.90;;
14121;SDS011;7139;48.114;11.442;2022-08-07T06:21:22;5.50;;;3.93;;
14121;SDS011;7139;48.114;11.442;2022-08-07T06:23:49;3.83;;;3.53;;
14121;SDS011;7139;48.114;11.442;2022-08-07T06:26:15;4.97;;;3.87;;
14121;SDS011;7139;48.114;11.442;2022-08-07T06:28:49;5.00;;;3.77;;
14121;SDS011;7139;48.114;11.442;2022-08-07T06:31:16;4.23;;;3.93;;
14121;SDS011;7139;48.114;11.442;2022-08-07T06:33:43;4.03;;;3.63;;
14121;SDS011;7139;48.114;11.442;2022-08-07T06:36:11;4.00;;;3.70;;
14121;SDS011;7139;48.114;11.442;2022-08-07T06:38:39;5.30;;;3.77;;
14121;SDS011;7139;48.114;11.442;2022-08-07T06:41:07;3.70;;;3.40;;
14121;SDS011;7139;48.114;11.442;2022-08-07T06:43:37;3.73;;;3.43;;
14121;SDS011;7139;48.114;11.442;2022-08-07T06:46:05;5.43;;;3.63;;
14121;SDS011;7139;48.114;11.442;2022-08-07T06:48:32;3.90;;;3.60;;
14121;SDS011;7139;48.114;11.442;2022-08-07T06:51:00;4.17;;;3.77;;
14121;SDS011;7139;48.114;11.442;2022-08-07T06:53:30;4.23;;;3.30;;
14121;SDS011;7139;48.114;11.442;2022-08-07T06:56:02;3.70;;;3.40;;
14121;SDS011;7139;48.114;11.442;2022-08-07T06:58:31;3.83;;;3.43;;
14121;SDS011;7139;48.114;11.442;2022-08-07T07:01:00;3.90;;;3.60;;
14121;SDS011;7139;48.114;11.442;2022-08-07T07:03:28;3.83;;;3.23;;
14121;SDS011;7139;48.114;11.442;2022-08-07T07:05:55;3.90;;;3.50;;
14121;SDS011;7139;48.114;11.442;2022-08-07T07:08:25;3.60;;;3.30;;
14121;SDS011;7139;48.114;11.442;2022-08-07T07:10:52;3.33;;;3.03;;
14121;SDS011;7139;48.114;11.442;2022-08-07T07:13:21;4.33;;;3.60;;
14121;SDS011;7139;48.114;11.442;2022-08-07T07:15:53;3.70;;;3.40;;
14121;SDS011;7139;48.114;11.442;2022-08-07T07:18:27;3.67;;;3.37;;
14121;SDS011;7139;48.114;11.442;2022-08-07T07:21:00;3.37;;;3.07;;
14121;SDS011;7139;48.114;11.442;2022-08-07T07:23:31;3.30;;;3.00;;
14121;SDS011;7139;48.114;11.442;2022-08-07T07:25:59;3.60;;;3.30;;
14121;SDS011;7139;48.114;11.442;2022-08-07T07:28:31;3.33;;;3.03;;
14121;SDS011;7139;48.114;11.442;2022-08-07T07:31:03;3.70;;;2.90;;
14121;SDS011;7139;48.114;11.442;2022-08-07T07:33:33;3.17;;;2.87;;
14121;SDS011;7139;48.114;11.442;2022-08-07T07:36:00;3.00;;;2.80;;
14121;SDS011;7139;48.114;11.442;2022-08-07T07:38:28;3.20;;;2.80;;
14121;SDS011;7139;48.114;11.442;2022-08-07T07:40:57;3.67;;;3.20;;
14121;SDS011;7139;48.114;11.442;2022-08-07T07:43:28;4.00;;;3.00;;
14121;SDS011;7139;48.114;11.442;2022-08-07T07:45:57;2.93;;;2.67;;
14121;SDS011;7139;48.114;11.442;2022-08-07T07:48:26;4.07;;;2.93;;
14121;SDS011;7139;48.114;11.442;2022-08-07T07:50:55;2.97;;;2.77;;
14121;SDS011;7139;48.114;11.442;2022-08-07T07:53:24;3.67;;;2.80;;
14121;SDS011;7139;48.114;11.442;2022-08-07T07:55:53;3.43;;;3.07;;
14121;SDS011;7139;48.114;11.442;2022-08-07T07:58:23;3.43;;;2.80;;
14121;SDS011;7139;48.114;11.442;2022-08-07T08:00:52;3.83;;;2.80;;
14121;SDS011;7139;48.114;11.442;2022-08-07T08:03:20;3.17;;;2.87;;
14121;SDS011;7139;48.114;11.442;2022-08-07T08:05:49;3.30;;;3.00;;
14121;SDS011;7139;48.114;11.442;2022-08-07T08:08:17;3.17;;;2.97;;
14121;SDS011;7139;48.114;11.442;2022-08-07T08:10:45;2.90;;;2.70;;
14121;SDS011;7139;48.114;11.442;2022-08-07T08:13:13;2.60;;;2.40;;
14121;SDS011;7139;48.114;11.442;2022-08-07T08:15:41;2.80;;;2.50;;
14121;SDS011;7139;48.114;11.442;2022-08-07T08:18:12;2.97;;;2.77;;
14121;SDS011;7139;48.114;11.442;2022-08-07T08:20:40;3.33;;;2.40;;
14121;SDS011;7139;48.114;11.442;2022-08-07T08:23:09;2.77;;;2.57;;
14121;SDS011;7139;48.114;11.442;2022-08-07T08:25:54;3.10;;;2.60;;
14121;SDS011;7139;48.114;11.442;2022-08-07T08:28:47;3.80;;;2.60;;
14121;SDS011;7139;48.114;11.442;2022-08-07T08:31:17;2.83;;;2.43;;
14121;SDS011;7139;48.114;11.442;2022-08-07T08:33:48;3.73;;;2.73;;
14121;SDS011;7139;48.114;11.442;2022-08-07T08:36:19;2.70;;;2.50;;
14121;SDS011;7139;48.114;11.442;2022-08-07T08:38:48;2.70;;;2.50;;
14121;SDS011;7139;48.114;11.442;2022-08-07T08:41:16;4.23;;;2.67;;
14121;SDS011;7139;48.114;11.442;2022-08-07T08:43:54;2.90;;;2.60;;
14121;SDS011;7139;48.114;11.442;2022-08-07T08:46:30;2.60;;;2.40;;
14121;SDS011;7139;48.114;11.442;2022-08-07T08:49:07;3.40;;;2.60;;
14121;SDS011;7139;48.114;11.442;2022-08-07T08:51:44;2.57;;;2.37;;
14121;SDS011;7139;48.114;11.442;2022-08-07T08:54:19;2.97;;;2.67;;
14121;SDS011;7139;48.114;11.442;2022-08-07T08:56:50;3.70;;;2.60;;
14121;SDS011;7139;48.114;11.442;2022-08-07T08:59:19;3.20;;;2.50;;
14121;SDS011;7139;48.114;11.442;2022-08-07T09:01:58;3.77;;;2.53;;
14121;SDS011;7139;48.114;11.442;2022-08-07T09:04:35;2.93;;;2.40;;
14121;SDS011;7139;48.114;11.442;2022-08-07T09:07:10;2.53;;;2.13;;
14121;SDS011;7139;48.114;11.442;2022-08-07T09:09:46;2.80;;;2.60;;
14121;SDS011;7139;48.114;11.442;2022-08-07T09:12:23;2.63;;;2.43;;
14121;SDS011;7139;48.114;11.442;2022-08-07T09:15:02;3.10;;;2.80;;
14121;SDS011;7139;48.114;11.442;2022-08-07T09:17:40;2.83;;;2.30;;
14121;SDS011;7139;48.114;11.442;2022-08-07T09:20:17;2.80;;;2.60;;
14121;SDS011;7139;48.114;11.442;2022-08-07T09:22:55;2.77;;;2.47;;
14121;SDS011;7139;48.114;11.442;2022-08-07T09:25:31;2.60;;;2.40;;
14121;SDS011;7139;48.114;11.442;2022-08-07T09:28:04;2.77;;;2.30;;
14121;SDS011;7139;48.114;11.442;2022-08-07T09:30:36;2.50;;;2.30;;
14121;SDS011;7139;48.114;11.442;2022-08-07T09:33:15;2.77;;;2.27;;
14121;SDS011;7139;48.114;11.442;2022-08-07T09:36:02;3.00;;;2.30;;
14121;SDS011;7139;48.114;11.442;2022-08-07T09:38:37;2.53;;;2.33;;
14121;SDS011;7139;48.114;11.442;2022-08-07T09:41:12;3.80;;;2.73;;
14121;SDS011;7139;48.114;11.442;2022-08-07T09:43:50;4.63;;;2.50;;
14121;SDS011;7139;48.114;11.442;2022-08-07T09:46:25;4.60;;;2.60;;
14121;SDS011;7139;48.114;11.442;2022-08-07T09:49:03;2.73;;;2.40;;
14121;SDS011;7139;48.114;11.442;2022-08-07T09:51:56;3.20;;;2.67;;
14121;SDS011;7139;48.114;11.442;2022-08-07T09:54:32;2.40;;;2.20;;
14121;SDS011;7139;48.114;11.442;2022-08-07T09:57:15;2.83;;;2.20;;
14121;SDS011;7139;48.114;11.442;2022-08-07T10:00:05;2.40;;;2.20;;
14121;SDS011;7139;48.114;11.442;2022-08-07T10:03:00;4.25;;;2.50;;
14121;SDS011;7139;48.114;11.442;2022-08-07T10:05:54;3.30;;;2.15;;
14121;SDS011;7139;48.114;11.442;2022-08-07T10:08:38;2.65;;;2.25;;
14121;SDS011;7139;48.114;11.442;2022-08-07T10:11:21;2.33;;;2.13;;
14121;SDS011;7139;48.114;11.442;2022-08-07T10:14:03;3.97;;;2.28;;
14121;SDS011;7139;48.114;11.442;2022-08-07T10:16:41;3.08;;;2.30;;
14121;SDS011;7139;48.114;11.442;2022-08-07T10:19:28;2.47;;;2.28;;
14121;SDS011;7139;48.114;11.442;2022-08-07T10:22:17;3.55;;;2.20;;
14121;SDS011;7139;48.114;11.442;2022-08-07T10:25:23;3.35;;;2.33;;
14121;SDS011;7139;48.114;11.442;2022-08-07T10:28:00;2.50;;;2.20;;
14121;SDS011;7139;48.114;11.442;2022-08-07T10:30:41;2.13;;;2.00;;
14121;SDS011;7139;48.114;11.442;2022-08-07T10:33:21;4.00;;;3.40;;
14121;SDS011;7139;48.114;11.442;2022-08-07T10:36:03;2.72;;;2.17;;
14121;SDS011;7139;48.114;11.442;2022-08-07T10:38:47;2.22;;;2.13;;
14121;SDS011;7139;48.114;11.442;2022-08-07T10:41:20;2.38;;;2.17;;
14121;SDS011;7139;48.114;11.442;2022-08-07T10:44:05;2.58;;;2.30;;
14121;SDS011;7139;48.114;11.442;2022-08-07T10:46:38;2.40;;;2.15;;
14121;SDS011;7139;48.114;11.442;2022-08-07T10:49:13;2.08;;;1.92;;
14121;SDS011;7139;48.114;11.442;2022-08-07T10:51:50;3.20;;;2.25;;
14121;SDS011;7139;48.114;11.442;2022-08-07T10:54:25;3.08;;;2.40;;
14121;SDS011;7139;48.114;11.442;2022-08-07T10:57:05;2.30;;;2.10;;
14121;SDS011;7139;48.114;11.442;2022-08-07T10:59:40;2.63;;;2.42;;
14121;SDS011;7139;48.114;11.442;2022-08-07T11:02:21;2.78;;;2.20;;
14121;SDS011;7139;48.114;11.442;2022-08-07T11:04:54;2.83;;;2.50;;
14121;SDS011;7139;48.114;11.442;2022-08-07T11:07:31;2.72;;;2.20;;
14121;SDS011;7139;48.114;11.442;2022-08-07T11:10:03;2.40;;;2.20;;
14121;SDS011;7139;48.114;11.442;2022-08-07T11:12:41;2.40;;;2.20;;
14121;SDS011;7139;48.114;11.442;2022-08-07T11:15:16;3.17;;;2.22;;
14121;SDS011;7139;48.114;11.442;2022-08-07T11:17:47;2.95;;;2.17;;
14121;SDS011;7139;48.114;11.442;2022-08-07T11:20:18;2.88;;;2.28;;
14121;SDS011;7139;48.114;11.442;2022-08-07T11:22:48;3.78;;;2.30;;
14121;SDS011;7139;48.114;11.442;2022-08-07T11:25:22;3.40;;;2.08;;
14121;SDS011;7139;48.114;11.442;2022-08-07T11:28:00;3.30;;;2.47;;
14121;SDS011;7139;48.114;11.442;2022-08-07T11:30:36;2.42;;;2.22;;
14121;SDS011;7139;48.114;11.442;2022-08-07T11:33:14;2.33;;;2.13;;
14121;SDS011;7139;48.114;11.442;2022-08-07T11:35:59;2.45;;;2.20;;
14121;SDS011;7139;48.114;11.442;2022-08-07T11:38:38;3.72;;;2.35;;
14121;SDS011;7139;48.114;11.442;2022-08-07T11:41:12;2.40;;;2.20;;
14121;SDS011;7139;48.114;11.442;2022-08-07T11:43:45;2.50;;;2.30;;
14121;SDS011;7139;48.114;11.442;2022-08-07T11:46:28;5.03;;;2.53;;
14121;SDS011;7139;48.114;11.442;2022-08-07T11:49:18;2.60;;;2.33;;
14121;SDS011;7139;48.114;11.442;2022-08-07T11:52:02;2.58;;;2.38;;
14121;SDS011;7139;48.114;11.442;2022-08-07T11:54:48;2.28;;;2.08;;
14121;SDS011;7139;48.114;11.442;2022-08-07T11:57:28;2.40;;;2.20;;
14121;SDS011;7139;48.114;11.442;2022-08-07T12:00:04;2.53;;;2.33;;
14121;SDS011;7139;48.114;11.442;2022-08-07T12:05:43;2.67;;;2.47;;
14121;SDS011;7139;48.114;11.442;2022-08-07T12:08:15;3.45;;;2.63;;
14121;SDS011;7139;48.114;11.442;2022-08-07T12:10:46;3.38;;;2.40;;
14121;SDS011;7139;48.114;11.442;2022-08-07T12:13:18;3.47;;;2.78;;
14121;SDS011;7139;48.114;11.442;2022-08-07T12:15:51;3.25;;;2.83;;
14121;SDS011;7139;48.114;11.442;2022-08-07T12:18:23;2.25;;;2.05;;
14121;SDS011;7139;48.114;11.442;2022-08-07T12:20:59;3.78;;;2.30;;
14121;SDS011;7139;48.114;11.442;2022-08-07T12:23:41;2.47;;;2.28;;
14121;SDS011;7139;48.114;11.442;2022-08-07T12:26:16;2.60;;;2.40;;
14121;SDS011;7139;48.114;11.442;2022-08-07T12:28:51;2.17;;;1.98;;
14121;SDS011;7139;48.114;11.442;2022-08-07T12:31:27;2.60;;;2.40;;
14121;SDS011;7139;48.114;11.442;2022-08-07T12:34:00;4.13;;;2.20;;
14121;SDS011;7139;48.114;11.442;2022-08-07T12:36:28;2.47;;;2.28;;
14121;SDS011;7139;48.114;11.442;2022-08-07T12:38:56;2.97;;;2.50;;
14121;SDS011;7139;48.114;11.442;2022-08-07T12:41:24;2.10;;;1.90;;
14121;SDS011;7139;48.114;11.442;2022-08-07T12:43:53;2.60;;;2.30;;
14121;SDS011;7139;48.114;11.442;2022-08-07T12:46:29;2.33;;;2.08;;
14121;SDS011;7139;48.114;11.442;2022-08-07T12:49:07;2.83;;;2.28;;
14121;SDS011;7139;48.114;11.442;2022-08-07T12:51:40;2.30;;;2.10;;
14121;SDS011;7139;48.114;11.442;2022-08-07T12:54:15;3.17;;;2.03;;
14121;SDS011;7139;48.114;11.442;2022-08-07T12:56:50;2.55;;;2.05;;
14121;SDS011;7139;48.114;11.442;2022-08-07T12:59:21;3.15;;;2.35;;
14121;SDS011;7139;48.114;11.442;2022-08-07T13:01:57;2.75;;;2.08;;
14121;SDS011;7139;48.114;11.442;2022-08-07T13:04:34;2.63;;;2.00;;
14121;SDS011;7139;48.114;11.442;2022-08-07T13:07:19;3.03;;;2.00;;
14121;SDS011;7139;48.114;11.442;2022-08-07T13:10:02;2.67;;;1.90;;
14121;SDS011;7139;48.114;11.442;2022-08-07T13:12:43;2.22;;;2.03;;
14121;SDS011;7139;48.114;11.442;2022-08-07T13:15:21;5.15;;;2.10;;
14121;SDS011;7139;48.114;11.442;2022-08-07T13:17:56;1.85;;;1.73;;
14121;SDS011;7139;48.114;11.442;2022-08-07T13:20:33;2.30;;;2.10;;
14121;SDS011;7139;48.114;11.442;2022-08-07T13:23:06;2.65;;;2.15;;
14121;SDS011;7139;48.114;11.442;2022-08-07T13:25:37;2.40;;;2.20;;
14121;SDS011;7139;48.114;11.442;2022-08-07T13:28:11;1.95;;;1.85;;
14121;SDS011;7139;48.114;11.442;2022-08-07T13:30:43;2.30;;;2.20;;
14121;SDS011;7139;48.114;11.442;2022-08-07T13:33:20;2.03;;;1.83;;
14121;SDS011;7139;48.114;11.442;2022-08-07T13:35:53;4.15;;;2.20;;
14121;SDS011;7139;48.114;11.442;2022-08-07T13:38:26;2.22;;;2.03;;
14121;SDS011;7139;48.114;11.442;2022-08-07T13:41:00;2.10;;;1.90;;
14121;SDS011;7139;48.114;11.442;2022-08-07T13:43:31;2.35;;;1.90;;
14121;SDS011;7139;48.114;11.442;2022-08-07T13:46:00;1.80;;;1.70;;
14121;SDS011;7139;48.114;11.442;2022-08-07T13:48:30;2.53;;;2.10;;
14121;SDS011;7139;48.114;11.442;2022-08-07T13:50:58;2.88;;;2.10;;
14121;SDS011;7139;48.114;11.442;2022-08-07T13:53:27;3.75;;;2.03;;
14121;SDS011;7139;48.114;11.442;2022-08-07T13:56:00;2.10;;;2.00;;
14121;SDS011;7139;48.114;11.442;2022-08-07T13:58:28;2.25;;;2.10;;
14121;SDS011;7139;48.114;11.442;2022-08-07T14:01:19;2.55;;;2.15;;
14121;SDS011;7139;48.114;11.442;2022-08-07T14:03:49;2.55;;;2.10;;
14121;SDS011;7139;48.114;11.442;2022-08-07T14:06:18;2.35;;;2.15;;
14121;SDS011;7139;48.114;11.442;2022-08-07T14:08:48;2.20;;;2.10;;
14121;SDS011;7139;48.114;11.442;2022-08-07T14:11:18;2.53;;;2.20;;
14121;SDS011;7139;48.114;11.442;2022-08-07T14:13:48;2.08;;;1.98;;
14121;SDS011;7139;48.114;11.442;2022-08-07T14:16:22;2.30;;;2.10;;
14121;SDS011;7139;48.114;11.442;2022-08-07T14:18:56;2.65;;;2.08;;
14121;SDS011;7139;48.114;11.442;2022-08-07T14:21:25;2.63;;;1.85;;
14121;SDS011;7139;48.114;11.442;2022-08-07T14:23:56;2.47;;;1.80;;
14121;SDS011;7139;48.114;11.442;2022-08-07T14:26:28;2.15;;;1.95;;
14121;SDS011;7139;48.114;11.442;2022-08-07T14:29:00;4.07;;;2.10;;
14121;SDS011;7139;48.114;11.442;2022-08-07T14:31:30;2.95;;;1.80;;
14121;SDS011;7139;48.114;11.442;2022-08-07T14:33:58;2.28;;;2.08;;
14121;SDS011;7139;48.114;11.442;2022-08-07T14:36:26;1.95;;;1.75;;
14121;SDS011;7139;48.114;11.442;2022-08-07T14:38:58;2.20;;;2.10;;
14121;SDS011;7139;48.114;11.442;2022-08-07T14:41:28;2.40;;;2.13;;
14121;SDS011;7139;48.114;11.442;2022-08-07T14:43:57;2.30;;;2.00;;
14121;SDS011;7139;48.114;11.442;2022-08-07T14:46:24;2.28;;;2.08;;
14121;SDS011;7139;48.114;11.442;2022-08-07T14:48:53;2.10;;;1.90;;
14121;SDS011;7139;48.114;11.442;2022-08-07T14:51:23;1.80;;;1.70;;
14121;SDS011;7139;48.114;11.442;2022-08-07T14:53:52;2.40;;;2.20;;
14121;SDS011;7139;48.114;11.442;2022-08-07T14:56:22;4.20;;;2.08;;
14121;SDS011;7139;48.114;11.442;2022-08-07T14:58:52;3.30;;;2.00;;
14121;SDS011;7139;48.114;11.442;2022-08-07T15:01:22;2.00;;;1.90;;
14121;SDS011;7139;48.114;11.442;2022-08-07T15:03:52;2.65;;;2.00;;
14121;SDS011;7139;48.114;11.442;2022-08-07T15:06:26;3.72;;;2.20;;
14121;SDS011;7139;48.114;11.442;2022-08-07T15:09:00;3.15;;;2.15;;
14121;SDS011;7139;48.114;11.442;2022-08-07T15:11:30;2.30;;;2.10;;
14121;SDS011;7139;48.114;11.442;2022-08-07T15:14:02;2.55;;;2.28;;
14121;SDS011;7139;48.114;11.442;2022-08-07T15:16:33;2.83;;;2.25;;
14121;SDS011;7139;48.114;11.442;2022-08-07T15:19:04;3.03;;;2.00;;